sensor_id;sensor_type;location;lat;lon;timestamp;pressure;altitude;pressure_sealevel;temperature;humidity
13553;BME280;6847;48.830;9.116;2023-05-08T00:02:03;98171.13;;;18.98;67.58
13553;BME280;6847;48.830;9.116;2023-05-08T00:04:30;98173.22;;;19.01;67.77
13553;BME280;6847;48.830;9.116;2023-05-08T00:06:57;98173.69;;;19.03;67.56
13553;BME280;6847;48.830;9.116;2023-05-08T00:09:24;98174.19;;;19.05;67.30
13553;BME280;6847;48.830;9.116;2023-05-08T00:11:53;98170.78;;;19.08;67.37
13553;BME280;6847;48.830;9.116;2023-05-08T00:14:19;98167.06;;;19.12;67.36
13553;BME280;6847;48.830;9.116;2023-05-08T00:16:48;98176.91;;;19.13;67.75
13553;BME280;6847;48.830;9.116;2023-05-08T00:19:17;98174.66;;;19.07;67.85
13553;BME280;6847;48.830;9.116;2023-05-08T00:21:43;98176.94;;;19.05;67.41
13553;BME280;6847;48.830;9.116;2023-05-08T00:24:10;98180.31;;;19.02;67.92
13553;BME280;6847;48.830;9.116;2023-05-08T00:26:37;98180.00;;;19.03;67.69
13553;BME280;6847;48.830;9.116;2023-05-08T00:29:06;98185.16;;;19.05;67.58
13553;BME280;6847;48.830;9.116;2023-05-08T00:31:33;98183.22;;;19.05;67.98
13553;BME280;6847;48.830;9.116;2023-05-08T00:34:03;98182.75;;;19.03;67.72
13553;BME280;6847;48.830;9.116;2023-05-08T00:36:32;98184.34;;;19.04;67.72
13553;BME280;6847;48.830;9.116;2023-05-08T00:38:59;98182.41;;;19.05;67.46
13553;BME280;6847;48.830;9.116;2023-05-08T00:41:26;98181.28;;;19.06;67.56
13553;BME280;6847;48.830;9.116;2023-05-08T00:43:52;98185.47;;;19.03;67.63
13553;BME280;6847;48.830;9.116;2023-05-08T00:46:19;98181.44;;;19.01;67.91
13553;BME280;6847;48.830;9.116;2023-05-08T00:48:46;98181.44;;;19.01;67.88
13553;BME280;6847;48.830;9.116;2023-05-08T00:51:13;98185.81;;;19.02;67.98
13553;BME280;6847;48.830;9.116;2023-05-08T00:53:43;98184.66;;;19.03;67.59
13553;BME280;6847;48.830;9.116;2023-05-08T00:56:12;98186.28;;;19.04;67.97
13553;BME280;6847;48.830;9.116;2023-05-08T00:58:41;98186.44;;;19.07;67.60
13553;BME280;6847;48.830;9.116;2023-05-08T01:01:09;98195.94;;;19.10;67.72
13553;BME280;6847;48.830;9.116;2023-05-08T01:03:36;98193.69;;;19.12;67.85
13553;BME280;6847;48.830;9.116;2023-05-08T01:06:04;98176.94;;;19.05;67.44
13553;BME280;6847;48.830;9.116;2023-05-08T01:08:31;98205.16;;;19.14;67.62
13553;BME280;6847;48.830;9.116;2023-05-08T01:11:08;98198.53;;;19.15;67.56
13553;BME280;6847;48.830;9.116;2023-05-08T01:13:45;98194.66;;;19.16;67.44
13553;BME280;6847;48.830;9.116;2023-05-08T01:16:18;98195.81;;;19.15;67.69
13553;BME280;6847;48.830;9.116;2023-05-08T01:18:53;98149.66;;;18.91;67.55
13553;BME280;6847;48.830;9.116;2023-05-08T01:21:27;98191.44;;;19.14;67.44
13553;BME280;6847;48.830;9.116;2023-05-08T01:24:15;98191.44;;;19.14;67.61
13553;BME280;6847;48.830;9.116;2023-05-08T01:27:16;98190.47;;;19.10;67.82
13553;BME280;6847;48.830;9.116;2023-05-08T01:30:26;98195.00;;;19.06;67.79
13553;BME280;6847;48.830;9.116;2023-05-08T01:33:04;98199.53;;;19.02;67.63
13553;BME280;6847;48.830;9.116;2023-05-08T01:35:38;98166.00;;;18.79;67.92
13553;BME280;6847;48.830;9.116;2023-05-08T01:38:14;98194.69;;;18.99;67.76
13553;BME280;6847;48.830;9.116;2023-05-08T01:40:50;98199.69;;;18.97;67.71
13553;BME280;6847;48.830;9.116;2023-05-08T01:43:24;98200.84;;;18.96;67.98
13553;BME280;6847;48.830;9.116;2023-05-08T01:45:54;98210.19;;;18.95;67.99
13553;BME280;6847;48.830;9.116;2023-05-08T01:48:29;98207.75;;;18.93;68.15
13553;BME280;6847;48.830;9.116;2023-05-08T01:51:06;98204.22;;;18.93;67.99
13553;BME280;6847;48.830;9.116;2023-05-08T01:53:37;98190.50;;;18.84;67.80
13553;BME280;6847;48.830;9.116;2023-05-08T01:56:11;98176.31;;;18.73;67.97
13553;BME280;6847;48.830;9.116;2023-05-08T01:58:41;98203.72;;;18.91;68.25
13553;BME280;6847;48.830;9.116;2023-05-08T02:01:09;98189.88;;;18.78;68.07
13553;BME280;6847;48.830;9.116;2023-05-08T02:03:40;98203.41;;;18.83;67.86
13553;BME280;6847;48.830;9.116;2023-05-08T02:06:09;98205.19;;;18.88;67.94
13553;BME280;6847;48.830;9.116;2023-05-08T02:08:39;98207.44;;;18.86;67.76
13553;BME280;6847;48.830;9.116;2023-05-08T02:11:08;98209.38;;;18.85;68.24
13553;BME280;6847;48.830;9.116;2023-05-08T02:13:38;98202.13;;;18.81;67.98
13553;BME280;6847;48.830;9.116;2023-05-08T02:16:08;98190.19;;;18.68;67.82
13553;BME280;6847;48.830;9.116;2023-05-08T02:18:37;98210.50;;;18.84;68.07
13553;BME280;6847;48.830;9.116;2023-05-08T02:21:07;98203.09;;;18.85;68.09
13553;BME280;6847;48.830;9.116;2023-05-08T02:23:36;98209.38;;;18.85;68.19
13553;BME280;6847;48.830;9.116;2023-05-08T02:26:04;98211.66;;;18.83;67.90
13553;BME280;6847;48.830;9.116;2023-05-08T02:28:32;98213.56;;;18.83;67.91
13553;BME280;6847;48.830;9.116;2023-05-08T02:30:59;98216.63;;;18.81;67.74
13553;BME280;6847;48.830;9.116;2023-05-08T02:33:30;98207.59;;;18.72;68.20
13553;BME280;6847;48.830;9.116;2023-05-08T02:35:58;98220.50;;;18.80;67.82
13553;BME280;6847;48.830;9.116;2023-05-08T02:38:27;98226.00;;;18.80;68.30
13553;BME280;6847;48.830;9.116;2023-05-08T02:40:59;98226.81;;;18.81;68.17
13553;BME280;6847;48.830;9.116;2023-05-08T02:43:27;98221.31;;;18.81;67.97
13553;BME280;6847;48.830;9.116;2023-05-08T02:46:01;98227.63;;;18.81;67.77
13553;BME280;6847;48.830;9.116;2023-05-08T02:48:37;98228.41;;;18.82;67.82
13553;BME280;6847;48.830;9.116;2023-05-08T02:51:15;98210.84;;;18.74;68.09
13553;BME280;6847;48.830;9.116;2023-05-08T02:53:50;98226.97;;;18.84;68.16
13553;BME280;6847;48.830;9.116;2023-05-08T02:56:27;98216.50;;;18.87;68.17
13553;BME280;6847;48.830;9.116;2023-05-08T02:59:01;98226.34;;;18.88;67.77
13553;BME280;6847;48.830;9.116;2023-05-08T03:01:37;98215.38;;;18.88;68.13
13553;BME280;6847;48.830;9.116;2023-05-08T03:04:08;98224.72;;;18.87;68.11
13553;BME280;6847;48.830;9.116;2023-05-08T03:06:39;98223.09;;;18.85;67.98
13553;BME280;6847;48.830;9.116;2023-05-08T03:09:15;98224.22;;;18.84;68.31
13553;BME280;6847;48.830;9.116;2023-05-08T03:11:46;98217.44;;;18.82;68.27
13553;BME280;6847;48.830;9.116;2023-05-08T03:14:19;98205.53;;;18.78;68.12
13553;BME280;6847;48.830;9.116;2023-05-08T03:16:50;98207.94;;;18.79;68.10
13553;BME280;6847;48.830;9.116;2023-05-08T03:19:23;98152.25;;;18.36;68.04
13553;BME280;6847;48.830;9.116;2023-05-08T03:21:53;98211.31;;;18.76;68.44
13553;BME280;6847;48.830;9.116;2023-05-08T03:24:24;98141.75;;;18.38;68.30
13553;BME280;6847;48.830;9.116;2023-05-08T03:26:54;98214.38;;;18.75;68.04
13553;BME280;6847;48.830;9.116;2023-05-08T03:29:23;98200.19;;;18.64;68.21
13553;BME280;6847;48.830;9.116;2023-05-08T03:31:52;98205.19;;;18.71;68.35
13553;BME280;6847;48.830;9.116;2023-05-08T03:34:20;98179.03;;;18.47;68.42
13553;BME280;6847;48.830;9.116;2023-05-08T03:36:50;98214.38;;;18.66;68.19
13553;BME280;6847;48.830;9.116;2023-05-08T03:39:17;98217.44;;;18.65;68.32
13553;BME280;6847;48.830;9.116;2023-05-08T03:41:45;98219.22;;;18.61;68.05
13553;BME280;6847;48.830;9.116;2023-05-08T03:44:14;98217.94;;;18.58;68.26
13553;BME280;6847;48.830;9.116;2023-05-08T03:46:45;98216.94;;;18.54;68.28
13553;BME280;6847;48.830;9.116;2023-05-08T03:49:13;98212.88;;;18.52;68.62
13553;BME280;6847;48.830;9.116;2023-05-08T03:51:41;98227.75;;;18.51;68.39
13553;BME280;6847;48.830;9.116;2023-05-08T03:54:09;98225.31;;;18.49;68.35
13553;BME280;6847;48.830;9.116;2023-05-08T03:56:36;98225.31;;;18.49;68.20
13553;BME280;6847;48.830;9.116;2023-05-08T03:59:10;98220.28;;;18.51;68.48
13553;BME280;6847;48.830;9.116;2023-05-08T04:01:48;98221.44;;;18.50;68.12
13553;BME280;6847;48.830;9.116;2023-05-08T04:04:16;98219.16;;;18.52;68.31
13553;BME280;6847;48.830;9.116;2023-05-08T04:06:47;98221.44;;;18.50;68.20
13553;BME280;6847;48.830;9.116;2023-05-08T04:09:18;98222.09;;;18.47;68.25
13553;BME280;6847;48.830;9.116;2023-05-08T04:11:51;98219.34;;;18.47;68.14
13553;BME280;6847;48.830;9.116;2023-05-08T04:14:30;98220.47;;;18.46;68.45
13553;BME280;6847;48.830;9.116;2023-05-08T04:17:02;98159.28;;;18.02;68.08
13553;BME280;6847;48.830;9.116;2023-05-08T04:19:33;98215.91;;;18.33;68.17
13553;BME280;6847;48.830;9.116;2023-05-08T04:22:05;98236.28;;;18.49;68.41
13553;BME280;6847;48.830;9.116;2023-05-08T04:24:34;98228.19;;;18.44;67.88
13553;BME280;6847;48.830;9.116;2023-05-08T04:27:03;98231.13;;;18.56;67.96
13553;BME280;6847;48.830;9.116;2023-05-08T04:29:34;98237.63;;;18.60;68.33
13553;BME280;6847;48.830;9.116;2023-05-08T04:32:04;98228.53;;;18.51;68.14
13553;BME280;6847;48.830;9.116;2023-05-08T04:34:33;98245.53;;;18.70;67.92
13553;BME280;6847;48.830;9.116;2023-05-08T04:37:00;98250.03;;;18.75;68.06
13553;BME280;6847;48.830;9.116;2023-05-08T04:39:27;98249.09;;;18.79;67.84
13553;BME280;6847;48.830;9.116;2023-05-08T04:41:55;98244.88;;;18.82;67.55
13553;BME280;6847;48.830;9.116;2023-05-08T04:44:27;98243.44;;;18.84;67.75
13553;BME280;6847;48.830;9.116;2023-05-08T04:46:58;98255.72;;;18.87;67.99
13553;BME280;6847;48.830;9.116;2023-05-08T04:49:24;98253.09;;;18.91;68.04
13553;BME280;6847;48.830;9.116;2023-05-08T04:51:51;98255.53;;;18.92;67.94
13553;BME280;6847;48.830;9.116;2023-05-08T04:54:18;98257.16;;;18.93;67.84
13553;BME280;6847;48.830;9.116;2023-05-08T04:56:47;98238.59;;;18.81;68.04
13553;BME280;6847;48.830;9.116;2023-05-08T04:59:13;98258.28;;;19.01;67.80
13553;BME280;6847;48.830;9.116;2023-05-08T05:01:40;98258.44;;;19.04;67.75
13553;BME280;6847;48.830;9.116;2023-05-08T05:04:08;98254.75;;;19.09;68.20
13553;BME280;6847;48.830;9.116;2023-05-08T05:06:34;98264.56;;;19.10;68.05
13553;BME280;6847;48.830;9.116;2023-05-08T05:09:01;98214.38;;;18.83;67.57
13553;BME280;6847;48.830;9.116;2023-05-08T05:11:27;98267.78;;;19.20;67.73
13553;BME280;6847;48.830;9.116;2023-05-08T05:13:54;98269.41;;;19.21;67.90
13553;BME280;6847;48.830;9.116;2023-05-08T05:16:21;98268.94;;;19.28;67.95
13553;BME280;6847;48.830;9.116;2023-05-08T05:18:47;98273.75;;;19.31;67.72
13553;BME280;6847;48.830;9.116;2023-05-08T05:21:15;98278.59;;;19.34;67.93
13553;BME280;6847;48.830;9.116;2023-05-08T05:23:42;98282.97;;;19.35;67.91
13553;BME280;6847;48.830;9.116;2023-05-08T05:26:09;98279.59;;;19.38;67.73
13553;BME280;6847;48.830;9.116;2023-05-08T05:28:36;98277.78;;;19.42;67.81
13553;BME280;6847;48.830;9.116;2023-05-08T05:31:03;98273.91;;;19.43;67.54
13553;BME280;6847;48.830;9.116;2023-05-08T05:33:30;98288.13;;;19.45;67.81
13553;BME280;6847;48.830;9.116;2023-05-08T05:35:57;98276.66;;;19.43;67.54
13553;BME280;6847;48.830;9.116;2023-05-08T05:38:26;98287.97;;;19.50;67.60
13553;BME280;6847;48.830;9.116;2023-05-08T05:40:53;98286.84;;;19.51;67.56
13553;BME280;6847;48.830;9.116;2023-05-08T05:43:22;98289.28;;;19.53;67.50
13553;BME280;6847;48.830;9.116;2023-05-08T05:45:50;98290.56;;;19.55;67.73
13553;BME280;6847;48.830;9.116;2023-05-08T05:48:17;98298.94;;;19.59;67.63
13553;BME280;6847;48.830;9.116;2023-05-08T05:50:45;98289.75;;;19.64;67.61
13553;BME280;6847;48.830;9.116;2023-05-08T05:53:11;98292.66;;;19.67;67.75
13553;BME280;6847;48.830;9.116;2023-05-08T05:55:42;98260.69;;;19.54;67.48
13553;BME280;6847;48.830;9.116;2023-05-08T05:58:10;98291.97;;;19.70;67.67
13553;BME280;6847;48.830;9.116;2023-05-08T06:00:37;98294.69;;;19.79;67.80
13553;BME280;6847;48.830;9.116;2023-05-08T06:03:04;98294.06;;;19.82;67.83
13553;BME280;6847;48.830;9.116;2023-05-08T06:05:31;98273.56;;;19.71;67.70
13553;BME280;6847;48.830;9.116;2023-05-08T06:07:58;98299.84;;;19.89;67.77
13553;BME280;6847;48.830;9.116;2023-05-08T06:10:25;98248.53;;;19.64;67.70
13553;BME280;6847;48.830;9.116;2023-05-08T06:12:53;98296.44;;;19.92;67.65
13553;BME280;6847;48.830;9.116;2023-05-08T06:15:29;98300.81;;;19.93;67.46
13553;BME280;6847;48.830;9.116;2023-05-08T06:17:58;98291.44;;;19.94;67.68
13553;BME280;6847;48.830;9.116;2023-05-08T06:20:29;98297.25;;;19.92;67.46
13553;BME280;6847;48.830;9.116;2023-05-08T06:22:56;98298.53;;;19.95;67.61
13553;BME280;6847;48.830;9.116;2023-05-08T06:25:23;98298.53;;;19.95;67.44
13553;BME280;6847;48.830;9.116;2023-05-08T06:27:53;98305.66;;;19.96;67.58
13553;BME280;6847;48.830;9.116;2023-05-08T06:30:20;98307.91;;;19.94;67.53
13553;BME280;6847;48.830;9.116;2023-05-08T06:32:47;98311.81;;;19.93;67.64
13553;BME280;6847;48.830;9.116;2023-05-08T06:35:14;98301.47;;;19.90;67.63
13553;BME280;6847;48.830;9.116;2023-05-08T06:37:43;98304.41;;;19.85;67.55
13553;BME280;6847;48.830;9.116;2023-05-08T06:40:11;98304.56;;;19.80;67.76
13553;BME280;6847;48.830;9.116;2023-05-08T06:42:40;98302.97;;;19.70;67.48
13553;BME280;6847;48.830;9.116;2023-05-08T06:45:09;98295.72;;;19.66;67.92
13553;BME280;6847;48.830;9.116;2023-05-08T06:47:37;98304.44;;;19.68;67.67
13553;BME280;6847;48.830;9.116;2023-05-08T06:50:06;98266.31;;;19.40;67.86
13553;BME280;6847;48.830;9.116;2023-05-08T06:52:33;98314.75;;;19.71;67.69
13553;BME280;6847;48.830;9.116;2023-05-08T06:55:00;98284.09;;;19.51;67.76
13553;BME280;6847;48.830;9.116;2023-05-08T06:57:31;98295.41;;;19.58;67.83
13553;BME280;6847;48.830;9.116;2023-05-08T06:59:58;98301.06;;;19.53;67.80
13553;BME280;6847;48.830;9.116;2023-05-08T07:02:26;98310.41;;;19.61;67.64
13553;BME280;6847;48.830;9.116;2023-05-08T07:04:54;98302.19;;;19.52;67.59
13553;BME280;6847;48.830;9.116;2023-05-08T07:07:21;98312.03;;;19.62;67.46
13553;BME280;6847;48.830;9.116;2023-05-08T07:09:48;98317.53;;;19.62;67.51
13553;BME280;6847;48.830;9.116;2023-05-08T07:12:14;98322.22;;;19.62;67.61
13553;BME280;6847;48.830;9.116;2023-05-08T07:14:41;98318.81;;;19.65;67.51
13553;BME280;6847;48.830;9.116;2023-05-08T07:17:08;98324.81;;;19.67;67.48
13553;BME280;6847;48.830;9.116;2023-05-08T07:19:36;98318.50;;;19.66;67.24
13553;BME280;6847;48.830;9.116;2023-05-08T07:22:05;98318.50;;;19.66;67.50
13553;BME280;6847;48.830;9.116;2023-05-08T07:24:32;98318.81;;;19.65;67.54
13553;BME280;6847;48.830;9.116;2023-05-08T07:26:59;98323.81;;;19.63;67.74
13553;BME280;6847;48.830;9.116;2023-05-08T07:29:26;98320.59;;;19.61;67.97
13553;BME280;6847;48.830;9.116;2023-05-08T07:31:53;98324.47;;;19.59;67.64
13553;BME280;6847;48.830;9.116;2023-05-08T07:34:22;98322.69;;;19.64;67.68
13553;BME280;6847;48.830;9.116;2023-05-08T07:36:50;98331.25;;;19.71;67.82
13553;BME280;6847;48.830;9.116;2023-05-08T07:39:18;98329.28;;;19.80;67.84
13553;BME280;6847;48.830;9.116;2023-05-08T07:41:45;98329.63;;;19.87;67.63
13553;BME280;6847;48.830;9.116;2023-05-08T07:44:11;98328.28;;;19.93;67.49
13553;BME280;6847;48.830;9.116;2023-05-08T07:46:38;98335.06;;;20.04;67.63
13553;BME280;6847;48.830;9.116;2023-05-08T07:49:06;98336.16;;;20.12;67.38
13553;BME280;6847;48.830;9.116;2023-05-08T07:51:32;98334.19;;;20.21;67.55
13553;BME280;6847;48.830;9.116;2023-05-08T07:54:01;98334.13;;;20.29;67.22
13553;BME280;6847;48.830;9.116;2023-05-08T07:56:27;98328.31;;;20.40;67.48
13553;BME280;6847;48.830;9.116;2023-05-08T07:58:54;98334.56;;;20.49;67.31
13553;BME280;6847;48.830;9.116;2023-05-08T08:01:21;98330.97;;;20.57;67.26
13553;BME280;6847;48.830;9.116;2023-05-08T08:03:48;98334.50;;;20.66;67.09
13553;BME280;6847;48.830;9.116;2023-05-08T08:06:15;98337.84;;;20.72;67.22
13553;BME280;6847;48.830;9.116;2023-05-08T08:08:43;98318.66;;;20.63;67.31
13553;BME280;6847;48.830;9.116;2023-05-08T08:11:11;98335.03;;;20.80;67.33
13553;BME280;6847;48.830;9.116;2023-05-08T08:13:38;98331.16;;;20.81;67.35
13553;BME280;6847;48.830;9.116;2023-05-08T08:16:05;98333.84;;;20.90;67.21
13553;BME280;6847;48.830;9.116;2023-05-08T08:18:33;98319.28;;;20.89;67.07
13553;BME280;6847;48.830;9.116;2023-05-08T08:21:04;98343.66;;;20.99;67.26
13553;BME280;6847;48.830;9.116;2023-05-08T08:23:31;98320.41;;;20.88;67.22
13553;BME280;6847;48.830;9.116;2023-05-08T08:26:05;98340.59;;;21.01;67.08
13553;BME280;6847;48.830;9.116;2023-05-08T08:28:33;98346.91;;;21.01;67.24
13553;BME280;6847;48.830;9.116;2023-05-08T08:31:00;98334.00;;;20.93;67.23
13553;BME280;6847;48.830;9.116;2023-05-08T08:33:28;98352.41;;;21.01;67.28
13553;BME280;6847;48.830;9.116;2023-05-08T08:35:55;98345.28;;;21.00;67.31
13553;BME280;6847;48.830;9.116;2023-05-08T08:38:21;98345.94;;;20.97;67.35
13553;BME280;6847;48.830;9.116;2023-05-08T08:40:49;98343.53;;;20.96;67.25
13553;BME280;6847;48.830;9.116;2023-05-08T08:43:17;98343.41;;;20.92;67.19
13553;BME280;6847;48.830;9.116;2023-05-08T08:45:46;98347.94;;;20.88;67.19
13553;BME280;6847;48.830;9.116;2023-05-08T08:48:14;98338.66;;;20.72;67.25
13553;BME280;6847;48.830;9.116;2023-05-08T08:50:42;98348.06;;;20.71;67.43
13553;BME280;6847;48.830;9.116;2023-05-08T08:53:21;98342.56;;;20.71;67.38
13553;BME280;6847;48.830;9.116;2023-05-08T08:55:54;98316.94;;;20.50;67.28
13553;BME280;6847;48.830;9.116;2023-05-08T08:58:27;98351.94;;;20.70;67.26
13553;BME280;6847;48.830;9.116;2023-05-08T09:00:59;98355.81;;;20.69;67.27
13553;BME280;6847;48.830;9.116;2023-05-08T09:03:30;98357.44;;;20.70;67.08
13553;BME280;6847;48.830;9.116;2023-05-08T09:05:59;98358.25;;;20.71;67.20
13553;BME280;6847;48.830;9.116;2023-05-08T09:08:26;98351.94;;;20.70;67.19
13553;BME280;6847;48.830;9.116;2023-05-08T09:10:54;98331.78;;;20.57;67.02
13553;BME280;6847;48.830;9.116;2023-05-08T09:13:21;98357.13;;;20.72;66.98
13553;BME280;6847;48.830;9.116;2023-05-08T09:15:47;98355.16;;;20.72;67.11
13553;BME280;6847;48.830;9.116;2023-05-08T09:18:17;98349.66;;;20.72;67.14
13553;BME280;6847;48.830;9.116;2023-05-08T09:20:44;98354.16;;;20.77;67.08
13553;BME280;6847;48.830;9.116;2023-05-08T09:23:11;98358.47;;;20.86;66.86
13553;BME280;6847;48.830;9.116;2023-05-08T09:25:40;98333.75;;;20.78;66.79
13553;BME280;6847;48.830;9.116;2023-05-08T09:28:19;98357.09;;;21.01;66.90
13553;BME280;6847;48.830;9.116;2023-05-08T09:30:51;98355.41;;;21.09;66.77
13553;BME280;6847;48.830;9.116;2023-05-08T09:33:20;98357.16;;;21.22;66.82
13553;BME280;6847;48.830;9.116;2023-05-08T09:35:47;98315.94;;;21.04;66.54
13553;BME280;6847;48.830;9.116;2023-05-08T09:38:35;98356.81;;;21.44;66.43
13553;BME280;6847;48.830;9.116;2023-05-08T09:41:06;98360.31;;;21.53;66.23
13553;BME280;6847;48.830;9.116;2023-05-08T09:43:34;98338.94;;;21.50;66.41
13553;BME280;6847;48.830;9.116;2023-05-08T09:46:19;98362.22;;;21.73;66.31
13553;BME280;6847;48.830;9.116;2023-05-08T09:48:50;98358.56;;;21.82;66.04
13553;BME280;6847;48.830;9.116;2023-05-08T09:51:19;98368.91;;;21.85;66.08
13553;BME280;6847;48.830;9.116;2023-05-08T09:53:49;98358.56;;;21.82;66.16
13553;BME280;6847;48.830;9.116;2023-05-08T09:56:34;98361.53;;;21.76;66.22
13553;BME280;6847;48.830;9.116;2023-05-08T09:59:03;98363.38;;;21.72;66.50
13553;BME280;6847;48.830;9.116;2023-05-08T10:01:32;98365.19;;;21.68;66.47
13553;BME280;6847;48.830;9.116;2023-05-08T10:04:02;98364.84;;;21.70;66.50
13553;BME280;6847;48.830;9.116;2023-05-08T10:06:30;98347.84;;;21.68;66.34
13553;BME280;6847;48.830;9.116;2023-05-08T10:09:07;98363.53;;;21.88;66.26
13553;BME280;6847;48.830;9.116;2023-05-08T10:11:34;98338.59;;;21.85;66.18
13553;BME280;6847;48.830;9.116;2023-05-08T10:14:01;98328.09;;;21.99;65.99
13553;BME280;6847;48.830;9.116;2023-05-08T10:16:35;98370.94;;;22.41;65.85
13553;BME280;6847;48.830;9.116;2023-05-08T10:19:11;98354.03;;;22.55;65.67
13553;BME280;6847;48.830;9.116;2023-05-08T10:21:40;98366.94;;;22.87;65.22
13553;BME280;6847;48.830;9.116;2023-05-08T10:24:13;98347.00;;;23.06;65.03
13553;BME280;6847;48.830;9.116;2023-05-08T10:26:42;98372.81;;;23.50;64.79
13553;BME280;6847;48.830;9.116;2023-05-08T10:29:15;98372.84;;;23.78;64.46
13553;BME280;6847;48.830;9.116;2023-05-08T10:31:45;98372.25;;;24.01;64.36
13553;BME280;6847;48.830;9.116;2023-05-08T10:34:18;98367.19;;;24.03;64.09
13553;BME280;6847;48.830;9.116;2023-05-08T10:36:49;98362.09;;;23.89;64.42
13553;BME280;6847;48.830;9.116;2023-05-08T10:39:18;98373.97;;;23.89;64.57
13553;BME280;6847;48.830;9.116;2023-05-08T10:41:47;98376.16;;;23.84;64.54
13553;BME280;6847;48.830;9.116;2023-05-08T10:44:14;98366.28;;;23.71;64.83
13553;BME280;6847;48.830;9.116;2023-05-08T10:46:47;98365.88;;;23.69;64.77
13553;BME280;6847;48.830;9.116;2023-05-08T10:49:22;98368.50;;;23.65;64.82
13553;BME280;6847;48.830;9.116;2023-05-08T10:51:57;98367.41;;;23.54;64.94
13553;BME280;6847;48.830;9.116;2023-05-08T10:54:35;98333.56;;;23.33;65.02
13553;BME280;6847;48.830;9.116;2023-05-08T10:57:08;98352.69;;;23.38;65.11
13553;BME280;6847;48.830;9.116;2023-05-08T10:59:36;98349.72;;;23.31;65.05
13553;BME280;6847;48.830;9.116;2023-05-08T11:02:03;98339.81;;;23.30;64.96
13553;BME280;6847;48.830;9.116;2023-05-08T11:04:34;98344.88;;;23.40;64.66
13553;BME280;6847;48.830;9.116;2023-05-08T11:07:00;98351.97;;;23.53;64.51
13553;BME280;6847;48.830;9.116;2023-05-08T11:09:44;98352.94;;;23.73;64.15
13553;BME280;6847;48.830;9.116;2023-05-08T11:12:19;98351.84;;;23.89;64.14
13553;BME280;6847;48.830;9.116;2023-05-08T11:14:54;98356.81;;;23.99;63.93
13553;BME280;6847;48.830;9.116;2023-05-08T11:17:24;98357.03;;;24.07;63.75
13553;BME280;6847;48.830;9.116;2023-05-08T11:19:59;98356.75;;;24.12;63.79
13553;BME280;6847;48.830;9.116;2023-05-08T11:22:29;98360.44;;;24.16;63.56
13553;BME280;6847;48.830;9.116;2023-05-08T11:24:59;98344.03;;;24.23;63.54
13553;BME280;6847;48.830;9.116;2023-05-08T11:27:38;98349.06;;;24.33;63.40
13553;BME280;6847;48.830;9.116;2023-05-08T11:30:25;98335.47;;;24.44;63.25
13553;BME280;6847;48.830;9.116;2023-05-08T11:33:14;98335.59;;;24.47;63.17
13553;BME280;6847;48.830;9.116;2023-05-08T11:35:49;98345.03;;;24.46;63.32
13553;BME280;6847;48.830;9.116;2023-05-08T11:38:21;98345.03;;;24.46;63.47
13553;BME280;6847;48.830;9.116;2023-05-08T11:41:09;98339.22;;;24.51;63.25
13553;BME280;6847;48.830;9.116;2023-05-08T11:46:51;98341.44;;;24.61;63.05
13553;BME280;6847;48.830;9.116;2023-05-08T11:49:22;98341.19;;;24.66;63.06
13553;BME280;6847;48.830;9.116;2023-05-08T11:51:53;98324.03;;;24.77;62.75
13553;BME280;6847;48.830;9.116;2023-05-08T11:54:23;98334.19;;;25.04;62.42
13553;BME280;6847;48.830;9.116;2023-05-08T11:56:54;98336.53;;;25.21;62.26
13553;BME280;6847;48.830;9.116;2023-05-08T11:59:21;98331.59;;;25.30;62.29
13553;BME280;6847;48.830;9.116;2023-05-08T12:01:48;98331.16;;;25.48;62.08
13553;BME280;6847;48.830;9.116;2023-05-08T12:04:17;98334.69;;;25.64;61.70
13553;BME280;6847;48.830;9.116;2023-05-08T12:06:45;98331.03;;;25.79;61.52
13553;BME280;6847;48.830;9.116;2023-05-08T12:09:18;98334.56;;;25.99;61.41
13553;BME280;6847;48.830;9.116;2023-05-08T12:11:45;98331.25;;;26.12;61.18
13553;BME280;6847;48.830;9.116;2023-05-08T12:14:12;98330.66;;;26.23;61.22
13553;BME280;6847;48.830;9.116;2023-05-08T12:16:42;98331.81;;;26.22;61.32
13553;BME280;6847;48.830;9.116;2023-05-08T12:19:10;98331.31;;;26.16;61.08
13553;BME280;6847;48.830;9.116;2023-05-08T12:21:38;98339.72;;;26.20;60.92
13553;BME280;6847;48.830;9.116;2023-05-08T12:24:09;98339.72;;;26.20;61.16
13553;BME280;6847;48.830;9.116;2023-05-08T12:26:39;98339.72;;;26.20;60.97
13553;BME280;6847;48.830;9.116;2023-05-08T12:29:05;98331.63;;;26.11;61.29
13553;BME280;6847;48.830;9.116;2023-05-08T12:31:33;98339.28;;;25.95;61.40
13553;BME280;6847;48.830;9.116;2023-05-08T12:34:01;98336.31;;;25.65;61.50
13553;BME280;6847;48.830;9.116;2023-05-08T12:36:32;98335.25;;;25.34;62.06
13553;BME280;6847;48.830;9.116;2023-05-08T12:39:08;98327.13;;;25.06;62.04
13553;BME280;6847;48.830;9.116;2023-05-08T12:41:45;98337.69;;;24.85;62.47
13553;BME280;6847;48.830;9.116;2023-05-08T12:44:16;98334.03;;;24.65;62.48
13553;BME280;6847;48.830;9.116;2023-05-08T12:46:48;98326.81;;;24.45;62.70
13553;BME280;6847;48.830;9.116;2023-05-08T12:49:26;98325.47;;;24.23;62.76
13553;BME280;6847;48.830;9.116;2023-05-08T12:52:00;98327.13;;;24.12;62.75
13553;BME280;6847;48.830;9.116;2023-05-08T12:54:37;98327.66;;;24.02;62.75
13553;BME280;6847;48.830;9.116;2023-05-08T12:57:26;98337.63;;;23.91;62.80
13553;BME280;6847;48.830;9.116;2023-05-08T13:00:02;98336.44;;;23.76;62.75
13553;BME280;6847;48.830;9.116;2023-05-08T13:02:29;98336.94;;;23.66;62.82
13553;BME280;6847;48.830;9.116;2023-05-08T13:05:00;98333.78;;;23.52;62.91
13553;BME280;6847;48.830;9.116;2023-05-08T13:07:32;98332.09;;;23.35;62.84
13553;BME280;6847;48.830;9.116;2023-05-08T13:10:02;98332.03;;;23.19;62.92
13553;BME280;6847;48.830;9.116;2023-05-08T13:12:31;98324.91;;;23.06;63.08
13553;BME280;6847;48.830;9.116;2023-05-08T13:14:58;98326.88;;;22.94;63.16
13553;BME280;6847;48.830;9.116;2023-05-08T13:17:25;98322.19;;;22.82;63.30
13553;BME280;6847;48.830;9.116;2023-05-08T13:19:51;98314.69;;;22.70;63.38
13553;BME280;6847;48.830;9.116;2023-05-08T13:22:20;98314.81;;;22.62;63.19
13553;BME280;6847;48.830;9.116;2023-05-08T13:24:51;98321.03;;;22.46;63.44
13553;BME280;6847;48.830;9.116;2023-05-08T13:27:18;98326.19;;;22.36;63.35
13553;BME280;6847;48.830;9.116;2023-05-08T13:29:46;98318.50;;;22.29;63.45